Time;durP1;ratioP1;P1;durP2;ratioP2;P2;SDS_P1;SDS_P2;PMS_P1;PMS_P2;Temp;Humidity;BMP_temperature;BMP_pressure;BME280_temperature;BME280_humidity;BME280_pressure;Samples;Min_cycle;Max_cycle;Signal;HPM_P1;HPM_P2
2023/06/02 00:17:34;;;;;;;;;;;;;;;22.77;46.13;99969.56;39932864;29;19967;-77
2023/06/02 00:37:34;;;;;;;;;;;;;;;22.64;45.78;99969.84;39910337;29;20023;-77
2023/06/02 00:57:38;;;;;;;;;;;;;;;22.55;45.59;99963.59;39906448;29;20546;-76
2023/06/02 01:17:45;;;;;;;;;;;;;;;22.45;45.92;99955.69;39878534;29;20021;-76
2023/06/02 01:37:49;;;;;;;;;;;;;;;22.33;45.94;99941.75;39897074;29;19928;-76
2023/06/02 01:57:49;;;;;;;;;;;;;;;22.19;46.50;99948.25;39904477;29;19931;-77
2023/06/02 02:17:50;;;;;;;;;;;;;;;22.10;46.78;99940.31;39914212;29;20521;-76
2023/06/02 02:37:50;;;;;;;;;;;;;;;21.98;47.23;99950.16;39932576;29;19953;-78
2023/06/02 02:57:51;;;;;;;;;;;;;;;21.90;47.42;99937.66;39919103;29;19999;-77
2023/06/02 03:17:51;;;;;;;;;;;;;;;21.77;47.49;99937.88;39922839;29;19929;-76
2023/06/02 03:37:51;;;;;;;;;;;;;;;21.70;47.81;99940.22;39900150;29;19952;-75
2023/06/02 03:57:51;;;;;;;;;;;;;;;21.66;48.18;99944.06;39925153;29;19957;-77
2023/06/02 04:17:52;;;;;;;;;;;;;;;21.87;48.45;99946.66;39902483;29;19929;-76
2023/06/02 04:37:53;;;;;;;;;;;;;;;21.97;48.00;99941.41;39890469;29;19929;-75
2023/06/02 04:57:54;;;;;;;;;;;;;;;21.92;48.50;99948.88;39908813;29;19932;-77
2023/06/02 05:17:55;;;;;;;;;;;;;;;21.96;48.01;99937.09;39878977;29;19935;-82
2023/06/02 05:37:55;;;;;;;;;;;;;;;22.09;48.38;99950.03;39914520;29;19932;-79
2023/06/02 05:57:57;;;;;;;;;;;;;;;22.25;47.95;99938.94;39873993;29;19933;-75
2023/06/02 06:17:57;;;;;;;;;;;;;;;22.44;47.74;99935.53;39930589;29;19955;-74
2023/06/02 06:37:57;;;;;;;;;;;;;;;22.66;48.19;99952.91;39952374;29;20758;-73
2023/06/02 06:57:58;;;;;;;;;;;;;;;22.89;48.63;99952.63;39918779;29;19931;-75
2023/06/02 07:17:58;;;;;;;;;;;;;;;23.10;48.02;99941.88;39911786;29;20278;-75
2023/06/02 07:37:59;;;;;;;;;;;;;;;23.26;47.59;99922.00;39940392;29;19980;-74
2023/06/02 07:57:59;;;;;;;;;;;;;;;23.44;47.45;99927.38;39932834;29;19933;-75
2023/06/02 08:17:59;;;;;;;;;;;;;;;23.54;46.96;99930.78;39886882;29;19936;-73
2023/06/02 08:38:02;;;;;;;;;;;;;;;23.62;46.36;99912.41;39898315;29;19932;-75
2023/06/02 08:58:02;;;;;;;;;;;;;;;23.77;45.43;99901.34;39868554;29;19931;-75
2023/06/02 09:18:11;;;;;;;;;;;;;;;23.82;45.71;99888.50;39886009;29;19947;-73
2023/06/02 09:38:13;;;;;;;;;;;;;;;23.91;45.58;99886.78;39866559;29;19924;-74
2023/06/02 09:58:13;;;;;;;;;;;;;;;23.95;45.10;99869.66;39886966;29;20019;-73
2023/06/02 10:18:33;;;;;;;;;;;;;;;23.89;41.46;99931.88;39815176;29;19928;-73
2023/06/02 10:38:34;;;;;;;;;;;;;;;23.85;42.87;99937.59;39799671;29;19933;-73
2023/06/02 10:58:47;;;;;;;;;;;;;;;23.79;43.72;99888.78;39891521;29;19976;-74
2023/06/02 11:18:47;;;;;;;;;;;;;;;24.00;44.40;99864.75;39854060;29;19997;-72
2023/06/02 11:38:47;;;;;;;;;;;;;;;24.01;41.50;99886.72;39852616;29;19988;-73
2023/06/02 11:58:48;;;;;;;;;;;;;;;23.88;46.26;99921.44;39892077;29;20380;-74
2023/06/02 12:18:50;;;;;;;;;;;;;;;23.72;45.99;99882.44;39883283;29;19977;-76
2023/06/02 12:38:50;;;;;;;;;;;;;;;23.78;45.95;99847.47;39870998;29;19995;-72
2023/06/02 12:58:54;;;;;;;;;;;;;;;23.93;43.20;99816.91;39896514;29;20429;-73
2023/06/02 13:18:54;;;;;;;;;;;;;;;24.22;43.25;99799.97;39903020;29;20002;-73
2023/06/02 13:38:54;;;;;;;;;;;;;;;24.50;42.13;99793.72;39839934;29;20011;-74
2023/06/02 13:58:54;;;;;;;;;;;;;;;24.72;41.80;99769.41;39865136;29;19976;-70
2023/06/02 14:18:55;;;;;;;;;;;;;;;24.90;41.52;99765.84;39854546;29;19962;-72
2023/06/02 14:38:55;;;;;;;;;;;;;;;25.02;40.70;99753.97;39910717;29;19928;-73
2023/06/02 14:58:58;;;;;;;;;;;;;;;25.18;38.53;99766.47;39910355;29;19968;-70
2023/06/02 15:18:59;;;;;;;;;;;;;;;25.21;38.34;99747.59;39925821;29;20068;-74
2023/06/02 15:38:59;;;;;;;;;;;;;;;25.24;38.14;99741.16;39908627;29;20080;-73
2023/06/02 15:59:01;;;;;;;;;;;;;;;25.25;38.35;99732.22;39908170;29;19932;-74
2023/06/02 16:19:01;;;;;;;;;;;;;;;25.25;38.60;99740.16;39873173;29;20158;-73
2023/06/02 16:39:10;;;;;;;;;;;;;;;25.36;38.67;99755.75;39885228;29;19932;-79
2023/06/02 16:59:11;;;;;;;;;;;;;;;25.55;39.73;99783.00;39891309;29;20068;-78
2023/06/02 17:19:11;;;;;;;;;;;;;;;25.64;39.57;99795.28;39886107;29;19985;-77
2023/06/02 17:39:11;;;;;;;;;;;;;;;25.62;36.63;99810.53;39868916;29;19997;-77
2023/06/02 17:59:12;;;;;;;;;;;;;;;25.57;36.95;99826.91;39883800;29;19947;-77
2023/06/02 18:19:14;;;;;;;;;;;;;;;25.51;36.86;99858.53;39879387;29;19993;-74
2023/06/02 18:39:14;;;;;;;;;;;;;;;25.31;36.95;99876.50;39893150;29;19935;-76
2023/06/02 18:59:15;;;;;;;;;;;;;;;25.09;36.91;99913.13;39884533;29;20344;-78
2023/06/02 19:19:17;;;;;;;;;;;;;;;24.94;37.78;99955.25;39915124;29;19977;-78
2023/06/02 19:39:17;;;;;;;;;;;;;;;24.86;37.82;99984.31;39902436;29;19943;-81
2023/06/02 19:59:17;;;;;;;;;;;;;;;24.72;38.01;99993.63;39911077;29;19940;-77
2023/06/02 20:19:19;;;;;;;;;;;;;;;24.57;38.34;100025.91;39923316;29;19963;-80
2023/06/02 20:39:23;;;;;;;;;;;;;;;24.42;38.73;100041.44;39917431;29;20049;-81
2023/06/02 20:59:23;;;;;;;;;;;;;;;24.33;38.97;100066.16;39924677;29;20385;-82
2023/06/02 21:19:24;;;;;;;;;;;;;;;24.33;39.64;100078.53;39910848;29;19935;-82
2023/06/02 21:39:24;;;;;;;;;;;;;;;24.07;40.05;100101.22;39909578;29;19951;-79
2023/06/02 21:59:25;;;;;;;;;;;;;;;24.04;40.55;100098.84;39943532;29;19933;-80
2023/06/02 22:19:25;;;;;;;;;;;;;;;23.87;40.71;100141.88;39916589;29;19925;-80
2023/06/02 22:39:25;;;;;;;;;;;;;;;23.59;41.22;100150.53;39961085;29;20441;-79
2023/06/02 22:59:26;;;;;;;;;;;;;;;23.42;41.82;100165.28;39977195;29;19928;-79
2023/06/02 23:19:26;;;;;;;;;;;;;;;23.31;41.98;100166.28;39972085;29;19979;-78
2023/06/02 23:39:26;;;;;;;;;;;;;;;23.11;42.43;100180.41;39979196;29;19928;-79
2023/06/02 23:59:27;;;;;;;;;;;;;;;22.98;41.93;100199.13;39972153;29;19928;-78
